Latest Weather Observations for Larapuna (Eddystone Point)

IDT60801

Issued at 6:01 pm EST Tuesday 30 June 2015 (issued every 30 minutes, with the page automatically refreshed every 10 minutes)

About weather observations | Map of weather stations | Latest weather observations for TAS | Other Formats
Station Details ID: 092045 Name: LARAPUNA (EDDYSTONE POINT) Lat: -40.99 Lon: 148.35 Height: 19.7 m
Data from the previous 72 hours. | See also: Recent months at Larapuna (Eddystone Point)
Date/Time
EST
Temp
°C
App
Temp
°C
Dew
Point
Rel
Hum
%
Delta-T
°C
Wind Press
QNH
hPa
Press
MSL
hPa
Rain
since 9 am
mm
Dir
 
Spd
km/h
Gust
km/h
Spd
kts
Gust
kts
30/06:00pm 8.6 3.5 6.2 85 1.1 W 22 30 12 16 1023.9 1024.0 0.0
30/05:30pm 8.9 4.3 6.3 84 1.2 WNW 20 30 11 16 1023.7 1023.8 0.0
30/05:00pm 9.5 5.5 6.6 82 1.3 WNW 17 24 9 13 1023.5 1023.6 0.0
30/04:30pm 10.4 6.4 6.5 77 1.8 WNW 17 22 9 12 1023.6 1023.7 0.0
30/04:00pm 11.3 7.7 6.6 73 2.2 WNW 15 24 8 13 1023.4 1023.5 0.0
30/03:30pm 11.8 7.2 6.7 71 2.4 WNW 20 32 11 17 1023.4 1023.5 0.0
30/03:00pm 12.6 7.6 6.6 67 2.9 WNW 22 30 12 16 1023.3 1023.4 0.0
30/02:30pm 12.5 7.5 6.5 67 2.9 WNW 22 32 12 17 1023.3 1023.4 0.0
30/02:00pm 12.6 8.1 6.9 68 2.7 WNW 20 33 11 18 1023.4 1023.5 0.0
30/01:30pm 12.6 7.3 6.6 67 2.9 WNW 24 32 13 17 1023.7 1023.8 0.0
30/01:00pm 12.7 7.9 7.4 70 2.6 WNW 22 30 12 16 1023.9 1024.0 0.0
30/12:30pm 12.0 7.1 7.1 72 2.4 WNW 22 30 12 16 1024.2 1024.3 0.0
30/12:00pm 11.6 7.2 7.5 76 2.0 WNW 20 30 11 16 1024.4 1024.5 0.0
30/11:30am 10.1 6.1 6.6 79 1.6 WNW 17 28 9 15 1025.0 1025.1 0.0
30/11:00am 10.8 5.1 6.7 76 1.9 WNW 26 33 14 18 1025.3 1025.4 0.0
30/10:30am 10.9 4.8 6.8 76 1.9 WNW 28 39 15 21 1025.4 1025.5 0.0
30/10:18am 10.7 4.6 6.8 77 1.8 WNW 28 46 15 25 1025.4 1025.5 0.0
30/10:00am 11.2 7.7 7.3 77 1.9 W 15 28 8 15 1025.7 1025.8 0.0
30/09:30am 10.2 4.2 7.1 81 1.5 WNW 28 43 15 23 1025.4 1025.5 0.0
30/09:00am 9.5 3.5 6.9 84 1.2 WNW 28 41 15 22 1025.4 1025.5 0.0
30/08:30am 8.6 1.7 6.6 87 0.9 WNW 32 41 17 22 1025.2 1025.3 0.0
30/08:00am 8.1 1.0 6.2 88 0.9 WNW 33 46 18 25 1024.9 1025.0 0.0
30/07:30am 8.1 0.6 6.2 88 0.9 NW 35 48 19 26 1024.6 1024.7 0.0
30/07:00am 8.1 1.0 6.4 89 0.8 NW 33 43 18 23 1024.4 1024.5 0.0
30/06:30am 8.1 2.3 6.4 89 0.8 NW 26 35 14 19 1024.4 1024.5 0.0
30/06:00am 8.0 2.9 6.1 88 0.9 WNW 22 30 12 16 1024.4 1024.5 0.0
30/05:30am 8.2 3.2 6.3 88 0.9 WNW 22 30 12 16 1024.4 1024.5 0.0
30/05:00am 8.1 4.0 6.2 88 0.9 W 17 30 9 16 1024.2 1024.3 0.0
30/04:30am 8.6 3.2 6.4 86 1.0 WNW 24 35 13 19 1024.2 1024.3 0.0
30/04:00am 8.8 1.7 6.6 86 1.0 WNW 33 43 18 23 1024.0 1024.1 0.0
30/03:30am 8.8 5.2 6.8 87 0.9 WNW 15 28 8 15 1024.4 1024.5 0.0
30/03:00am 8.9 4.9 6.7 86 1.0 NW 17 26 9 14 1024.6 1024.7 0.0
30/02:30am 9.1 3.8 6.7 85 1.1 NW 24 33 13 18 1024.5 1024.6 0.0
30/02:02am 9.5 2.1 6.8 83 1.3 WNW 35 54 19 29 1024.1 1024.2 0.0
30/02:00am 9.5 1.7 6.8 83 1.3 WNW 37 50 20 27 1024.1 1024.2 0.0
30/01:30am 9.7 2.4 7.0 83 1.3 WNW 35 48 19 26 1024.0 1024.1 0.0
30/01:00am 9.8 2.1 7.1 83 1.3 WNW 37 52 20 28 1024.1 1024.2 0.0
30/12:30am 9.9 2.6 7.3 84 1.2 W 35 54 19 29 1024.2 1024.3 0.0
30/12:23am 10.0 2.7 7.4 84 1.2 W 35 54 19 29 1024.3 1024.4 0.0
30/12:00am 10.2 3.0 7.8 85 1.1 WNW 35 50 19 27 1024.6 1024.7 0.0
 
Date/Time
EST
Temp
°C
App
Temp
°C
Dew
Point
Rel
Hum
%
Delta-T
°C
Wind Press
QNH
hPa
Press
MSL
hPa
Rain
since 9 am
mm
Dir
 
Spd
km/h
Gust
km/h
Spd
kts
Gust
kts
29/11:30pm 10.2 3.5 8.0 86 1.1 WNW 33 50 18 27 1024.7 1024.8 0.0
29/11:28pm 10.2 4.1 8.1 87 1.0 WNW 30 48 16 26 1024.7 1024.8 0.0
29/11:00pm 10.1 4.0 8.2 88 0.9 WNW 30 41 16 22 1024.9 1025.0 0.0
29/10:30pm 10.1 5.1 8.0 87 1.0 WNW 24 39 13 21 1025.2 1025.3 0.0
29/10:00pm 10.3 4.9 8.2 87 1.0 NW 26 37 14 20 1025.4 1025.5 0.0
29/09:30pm 10.7 4.2 8.3 85 1.2 WNW 32 44 17 24 1025.3 1025.4 0.0
29/09:00pm 10.7 4.0 8.3 85 1.2 WNW 33 48 18 26 1025.2 1025.3 0.0
29/08:30pm 10.6 4.5 8.2 85 1.2 WNW 30 41 16 22 1025.4 1025.5 0.0
29/08:00pm 10.8 5.1 8.4 85 1.2 WNW 28 41 15 22 1025.8 1025.9 0.0
29/07:30pm 11.0 4.9 8.4 84 1.3 W 30 43 16 23 1025.8 1025.9 0.0
29/07:00pm 11.3 4.3 8.5 83 1.4 WNW 35 54 19 29 1025.4 1025.5 0.0
29/06:46pm 11.3 5.6 8.5 83 1.4 WNW 28 46 15 25 1025.5 1025.6 0.0
29/06:30pm 11.3 5.2 8.3 82 1.5 WNW 30 44 16 24 1025.4 1025.5 0.0
29/06:03pm 11.3 5.2 8.2 81 1.5 WNW 30 48 16 26 1025.3 1025.4 0.0
29/06:00pm 11.3 4.8 8.2 81 1.5 WNW 32 48 17 26 1025.3 1025.4 0.0
29/05:46pm 11.4 4.8 8.4 82 1.5 WNW 33 54 18 29 1025.3 1025.4 0.0
29/05:30pm 11.5 4.1 8.4 81 1.5 WNW 37 48 20 26 1025.1 1025.2 0.0
29/05:16pm 11.5 4.5 8.4 81 1.5 WNW 35 59 19 32 1025.1 1025.2 0.0
29/05:00pm 11.5 4.9 8.4 81 1.5 WNW 33 46 18 25 1025.2 1025.3 0.0
29/04:44pm 11.6 4.6 8.5 81 1.5 WNW 35 54 19 29 1025.2 1025.3 0.0
29/04:30pm 11.8 4.1 8.5 80 1.6 WNW 39 56 21 30 1025.0 1025.1 0.0
29/04:02pm 12.3 3.8 8.6 78 1.8 WNW 43 63 23 34 1025.2 1025.3 0.0
29/04:00pm 12.3 3.8 8.6 78 1.8 WNW 43 59 23 32 1025.3 1025.4 0.0
29/03:44pm 12.5 4.0 8.4 76 2.0 WNW 43 61 23 33 1025.4 1025.5 0.0
29/03:30pm 12.8 5.0 8.3 74 2.2 WNW 39 56 21 30 1025.3 1025.4 0.0
29/03:00pm 13.4 4.8 8.9 74 2.3 WNW 44 65 24 35 1025.1 1025.2 0.0
29/02:30pm 13.7 4.7 8.7 72 2.5 WNW 46 69 25 37 1025.0 1025.1 0.0
29/02:00pm 14.2 4.6 7.9 66 3.1 WNW 48 67 26 36 1024.8 1024.9 0.0
29/01:56pm 14.4 5.7 8.4 67 3.0 WNW 44 63 24 34 1024.9 1025.0 0.0
29/01:30pm 14.5 5.3 8.0 65 3.2 WNW 46 61 25 33 1024.8 1024.9 0.0
29/01:00pm 14.5 5.5 8.7 68 2.9 WNW 46 65 25 35 1025.0 1025.1 0.0
29/12:30pm 14.6 5.5 8.3 66 3.2 WNW 46 65 25 35 1025.3 1025.4 0.0
29/12:01pm 14.3 5.7 8.3 67 3.0 WNW 43 61 23 33 1025.7 1025.8 0.0
29/12:00pm 14.4 5.7 8.4 67 3.0 WNW 44 61 24 33 1025.7 1025.8 0.0
29/11:44am 14.0 5.4 8.2 68 2.9 WNW 43 61 23 33 1026.1 1026.2 0.0
29/11:30am 13.8 5.3 8.4 70 2.7 WNW 43 59 23 32 1026.4 1026.5 0.0
29/11:17am 13.8 6.1 8.8 72 2.5 WNW 39 57 21 31 1026.6 1026.7 0.0
29/11:00am 13.4 4.9 8.7 73 2.3 WNW 43 57 23 31 1026.7 1026.8 0.0
29/10:30am 13.0 4.6 8.9 76 2.1 WNW 43 61 23 33 1027.1 1027.2 0.0
29/10:00am 12.5 3.8 8.6 77 1.9 WNW 44 65 24 35 1027.1 1027.2 0.0
29/09:44am 12.2 3.7 8.7 79 1.7 WNW 43 61 23 33 1027.2 1027.3 0.0
29/09:30am 12.1 4.5 8.9 81 1.6 WNW 39 56 21 30 1027.2 1027.3 0.0
29/09:00am 11.7 3.2 8.7 82 1.5 WNW 43 63 23 34 1027.1 1027.2 0.0
29/08:38am 11.5 3.9 8.9 84 1.3 WNW 39 57 21 31 1027.2 1027.3 0.0
29/08:30am 11.5 3.9 8.9 84 1.3 WNW 39 56 21 30 1027.2 1027.3 0.0
29/08:10am 11.1 4.1 8.5 84 1.3 WNW 35 57 19 31 1027.4 1027.5 0.0
29/08:00am 11.0 3.7 8.6 85 1.2 WNW 37 50 20 27 1027.4 1027.5 0.0
29/07:51am 10.9 4.5 8.7 86 1.1 WNW 32 50 17 27 1027.4 1027.5 0.0
29/07:30am 10.9 4.6 8.8 87 1.0 WNW 32 43 17 23 1027.4 1027.5 0.0
29/07:15am 10.8 4.4 8.7 87 1.0 WNW 32 54 17 29 1027.2 1027.3 0.0
29/07:00am 10.7 3.7 8.5 86 1.1 WNW 35 48 19 26 1027.2 1027.3 0.0
29/06:42am 10.4 4.7 8.3 87 1.0 WNW 28 46 15 25 1027.1 1027.2 0.0
29/06:30am 10.6 3.6 8.5 87 1.0 WNW 35 50 19 27 1026.9 1027.0 0.0
29/06:13am 10.6 2.9 8.5 87 1.0 WNW 39 57 21 31 1026.6 1026.7 0.0
29/06:00am 10.5 2.7 8.4 87 1.0 NW 39 50 21 27 1026.3 1026.4 0.0
29/05:30am 10.6 2.8 8.4 86 1.1 WNW 39 50 21 27 1026.3 1026.4 0.0
29/05:00am 10.6 3.5 8.2 85 1.2 WNW 35 46 19 25 1026.4 1026.5 0.0
29/04:30am 10.5 4.0 8.3 86 1.1 WNW 32 43 17 23 1026.4 1026.5 0.0
29/04:00am 10.6 4.8 8.0 84 1.3 WNW 28 37 15 20 1026.6 1026.7 0.0
29/03:30am 10.8 5.8 8.2 84 1.3 WNW 24 33 13 18 1026.7 1026.8 0.0
29/03:00am 11.1 5.0 8.3 83 1.4 NW 30 41 16 22 1026.6 1026.7 0.0
29/02:30am 11.0 6.1 8.4 84 1.3 NW 24 35 13 19 1026.8 1026.9 0.0
29/02:00am 10.6 6.4 8.2 85 1.2 WNW 20 28 11 15 1026.9 1027.0 0.0
29/01:30am 10.4 6.7 8.0 85 1.2 W 17 26 9 14 1026.8 1026.9 0.0
29/01:00am 10.8 7.1 8.0 83 1.4 WNW 17 24 9 13 1027.1 1027.2 0.0
29/12:30am 10.9 5.9 8.0 82 1.4 W 24 33 13 18 1027.0 1027.1 0.0
29/12:00am 10.8 5.8 7.9 82 1.4 W 24 35 13 19 1027.1 1027.2 0.0
 
Date/Time
EST
Temp
°C
App
Temp
°C
Dew
Point
Rel
Hum
%
Delta-T
°C
Wind Press
QNH
hPa
Press
MSL
hPa
Rain
since 9 am
mm
Dir
 
Spd
km/h
Gust
km/h
Spd
kts
Gust
kts
28/11:30pm 11.3 4.8 8.0 80 1.6 WNW 32 50 17 27 1027.3 1027.4 0.0
28/11:24pm 11.3 4.8 8.2 81 1.5 WNW 32 50 17 27 1027.2 1027.3 0.0
28/11:00pm 11.2 5.1 8.2 82 1.5 WNW 30 37 16 20 1027.3 1027.4 0.0
28/10:30pm 11.2 7.2 8.1 81 1.5 WNW 19 28 10 15 1027.5 1027.6 0.0
28/10:00pm 11.4 7.8 8.4 82 1.5 NW 17 24 9 13 1027.6 1027.7 0.0
28/09:30pm 11.5 8.7 8.7 83 1.4 WNW 13 24 7 13 1027.7 1027.8 0.0
28/09:18pm 11.7 6.1 8.9 83 1.4 WNW 28 46 15 25 1027.4 1027.5 0.0
28/09:00pm 11.7 6.1 8.9 83 1.4 WNW 28 44 15 24 1027.3 1027.4 0.0
28/08:30pm 11.8 6.3 9.0 83 1.4 WNW 28 43 15 23 1026.9 1027.0 0.0
28/08:00pm 11.7 6.9 8.9 83 1.4 WNW 24 35 13 19 1026.9 1027.0 0.0
28/07:36pm 11.8 6.3 9.0 83 1.4 WNW 28 48 15 26 1026.7 1026.8 0.0
28/07:30pm 11.7 5.8 8.9 83 1.4 WNW 30 44 16 24 1026.6 1026.7 0.0
28/07:05pm 11.9 4.3 9.1 83 1.4 WNW 39 59 21 32 1026.1 1026.2 0.0
28/07:00pm 11.8 4.6 9.0 83 1.4 WNW 37 52 20 28 1026.1 1026.2 0.0
28/06:36pm 11.9 3.9 9.1 83 1.4 WNW 41 63 22 34 1025.8 1025.9 0.0
28/06:30pm 12.0 4.4 9.0 82 1.5 WNW 39 56 21 30 1025.8 1025.9 0.0
28/06:00pm 12.0 4.8 9.0 82 1.5 WNW 37 57 20 31 1025.8 1025.9 0.0
28/05:30pm 12.1 4.5 8.9 81 1.6 WNW 39 57 21 31 1025.5 1025.6 0.0
28/05:00pm 12.1 5.2 8.9 81 1.6 WNW 35 54 19 29 1025.4 1025.5 0.0
28/04:49pm 12.1 4.5 8.9 81 1.6 WNW 39 57 21 31 1025.6 1025.7 0.0
28/04:30pm 12.3 3.9 9.1 81 1.6 WNW 43 59 23 32 1025.6 1025.7 0.0
28/04:16pm 12.6 5.4 9.1 79 1.8 WNW 37 56 20 30 1025.4 1025.5 0.0
28/04:00pm 12.8 4.7 8.7 76 2.0 WNW 41 54 22 29 1025.3 1025.4 0.0
28/03:30pm 13.4 6.4 8.5 72 2.5 WNW 35 54 19 29 1025.8 1025.9 0.0
28/03:02pm 13.6 6.1 8.0 69 2.8 WNW 37 56 20 30 1025.7 1025.8 0.0
28/03:00pm 13.7 6.3 8.3 70 2.7 WNW 37 48 20 26 1025.7 1025.8 0.0
28/02:34pm 13.8 6.7 8.2 69 2.8 WNW 35 56 19 30 1025.4 1025.5 0.0
28/02:30pm 13.8 7.3 8.2 69 2.8 WNW 32 46 17 25 1025.4 1025.5 0.0
28/02:08pm 13.9 7.2 8.1 68 2.9 WNW 33 54 18 29 1025.6 1025.7 0.0
28/02:00pm 14.1 7.7 8.5 69 2.8 WNW 32 46 17 25 1025.7 1025.8 0.0
28/01:41pm 13.9 6.8 8.1 68 2.9 WNW 35 54 19 29 1025.7 1025.8 0.0
28/01:30pm 14.0 6.6 8.2 68 2.9 WNW 37 50 20 27 1025.9 1026.0 0.0
28/01:00pm 14.2 5.9 7.9 66 3.1 WNW 41 56 22 30 1025.7 1025.8 0.0
28/12:30pm 14.5 7.9 8.7 68 2.9 WNW 33 48 18 26 1025.9 1026.0 0.0
28/12:00pm 14.1 5.4 8.3 68 2.9 WNW 44 65 24 35 1025.7 1025.8 0.0
28/11:30am 14.1 5.4 8.3 68 2.9 WNW 44 69 24 37 1025.9 1026.0 0.0
28/11:00am 13.7 5.5 8.3 70 2.7 WNW 41 63 22 34 1025.8 1025.9 0.0
28/10:30am 13.1 6.0 8.2 72 2.4 WNW 35 56 19 30 1026.2 1026.3 0.0
28/10:26am 13.1 6.5 8.4 73 2.3 WNW 33 56 18 30 1026.3 1026.4 0.0
28/10:00am 12.6 6.1 8.3 75 2.1 W 32 44 17 24 1026.4 1026.5 0.0
28/09:30am 11.9 4.1 8.2 78 1.8 WNW 39 57 21 31 1026.2 1026.3 0.0
28/09:00am 11.3 3.4 8.0 80 1.6 WNW 39 54 21 29 1026.1 1026.2 0.2
28/08:31am 10.8 2.9 7.7 81 1.5 W 39 57 21 31 1026.0 1026.1 0.2
28/08:30am 10.8 2.5 7.7 81 1.5 W 41 57 22 31 1026.0 1026.1 0.2
28/08:04am 10.5 2.2 7.6 82 1.4 WNW 41 59 22 32 1026.0 1026.1 0.2
28/08:00am 10.4 2.4 7.5 82 1.4 WNW 39 50 21 27 1026.0 1026.1 0.2
28/07:30am 10.2 1.8 7.4 83 1.3 WNW 41 54 22 29 1025.7 1025.8 0.2
28/07:07am 10.1 2.8 7.3 83 1.3 WNW 35 54 19 29 1025.5 1025.6 0.2
28/07:00am 10.1 2.4 7.3 83 1.3 WNW 37 50 20 27 1025.5 1025.6 0.2
28/06:30am 10.2 2.5 7.3 82 1.4 WNW 37 50 20 27 1025.3 1025.4 0.2
28/06:00am 10.2 2.2 7.3 82 1.4 WNW 39 52 21 28 1025.1 1025.2 0.2
28/05:31am 10.1 3.2 7.2 82 1.4 WNW 33 52 18 28 1025.0 1025.1 0.2
28/05:30am 10.1 2.8 7.2 82 1.4 WNW 35 52 19 28 1025.0 1025.1 0.2
28/05:00am 10.0 2.7 7.3 83 1.3 WNW 35 46 19 25 1024.7 1024.8 0.2
28/04:30am 10.0 2.3 7.1 82 1.4 WNW 37 48 20 26 1024.7 1024.8 0.2
28/04:00am 10.0 3.0 6.9 81 1.5 WNW 33 44 18 24 1024.8 1024.9 0.2
28/03:30am 9.9 5.0 6.8 81 1.5 WNW 22 32 12 17 1025.0 1025.1 0.2
28/03:00am 9.9 6.3 6.6 80 1.5 WNW 15 26 8 14 1025.2 1025.3 0.2
28/02:30am 9.9 5.9 6.6 80 1.5 NW 17 28 9 15 1025.2 1025.3 0.2
28/02:00am 10.2 6.2 6.5 78 1.7 NW 17 26 9 14 1024.9 1025.0 0.2
28/01:30am 10.3 6.2 6.3 76 1.9 NW 17 26 9 14 1024.8 1024.9 0.2
28/01:00am 10.2 6.9 6.2 76 1.8 NW 13 26 7 14 1024.6 1024.7 0.2
28/12:30am 10.3 7.0 6.3 76 1.9 NNW 13 24 7 13 1024.5 1024.6 0.2
28/12:00am 10.5 5.2 6.6 77 1.8 NW 24 33 13 18 1024.0 1024.1 0.2
 
Date/Time
EST
Temp
°C
App
Temp
°C
Dew
Point
Rel
Hum
%
Delta-T
°C
Wind Press
QNH
hPa
Press
MSL
hPa
Rain
since 9 am
mm
Dir
 
Spd
km/h
Gust
km/h
Spd
kts
Gust
kts
27/11:30pm 10.5 4.4 6.6 77 1.8 NW 28 39 15 21 1023.9 1024.0 0.2
27/11:00pm 10.6 3.1 6.4 75 2.0 WNW 35 50 19 27 1023.5 1023.6 0.2
27/10:30pm 10.7 3.6 6.3 74 2.1 WNW 33 46 18 25 1023.6 1023.7 0.2
27/10:11pm 10.9 3.9 6.1 72 2.2 WNW 32 52 17 28 1023.6 1023.7 0.2
27/10:00pm 10.9 3.7 6.1 72 2.2 WNW 33 46 18 25 1023.5 1023.6 0.2
27/09:31pm 11.1 3.8 5.4 68 2.6 WNW 33 54 18 29 1023.5 1023.6 0.2
27/09:30pm 11.1 4.0 5.6 69 2.5 WNW 32 43 17 23 1023.5 1023.6 0.2
27/09:00pm 11.4 3.7 5.5 67 2.7 WNW 35 54 19 29 1023.2 1023.3 0.2
27/08:30pm 11.5 3.6 6.2 70 2.5 WNW 37 56 20 30 1023.0 1023.1 0.2
27/08:25pm 11.5 4.1 6.6 72 2.3 WNW 35 54 19 29 1023.1 1023.2 0.2
27/08:00pm 11.7 5.4 8.9 83 1.4 NW 32 44 17 24 1023.5 1023.6 0.2
27/07:30pm 11.8 7.0 9.0 83 1.4 NW 24 32 13 17 1023.6 1023.7 0.2
27/07:00pm 11.8 7.0 9.0 83 1.4 NW 24 33 13 18 1023.5 1023.6 0.2
27/06:30pm 12.0 6.8 9.0 82 1.5 WNW 26 37 14 20 1023.5 1023.6 0.2

Other Formats:

Comma delimited format used in spreadsheet applications
http://www.bom.gov.au/fwo/IDT60801/IDT60801.94983.axf

JavaScript Object Notation format (JSON) in row-major order
http://www.bom.gov.au/fwo/IDT60801/IDT60801.94983.json